Titan — ZCED2 — position and weather

sailwx.info

Track history (hours):
 
Tides and Currents Weather Stations Pressure Air Temp Water Temp Dewpoint Dewpoint Depression Visibility Wind Speed Wind Dir Waves Ship Positions

Titan

Last reported at 2015-Oct-01 10:33 UTC. Time now 2016-Feb-10 20:06 UTC.
Position N 54°19' E 009°42'.
Warning: this ship's position is months out of date.

Length 80 m; draft 3.5 m.

Type: Pleasure craft. MMSI: 310598000.

Date/timePositionNaut miles runAvg speedWind from/ knotsBaromVisibWave heightAir tempDewpointWater temp
2015-Oct-01 10:33N 54°19' E 009°42'0 0.0
2015-Sep-30 23:26N 54°19' E 009°42'0 0.0
2015-Sep-30 22:32N 54°19' E 009°42'0 0.0
2015-Sep-30 21:32N 54°19' E 009°42'0 0.0
2015-Sep-30 20:32N 54°19' E 009°42'0 0.0
2015-Sep-30 19:29N 54°19' E 009°42'0 0.0
2015-Sep-30 18:32N 54°19' E 009°42'0 0.0
2015-Sep-30 17:32N 54°19' E 009°42'0 0.0
2015-Sep-30 16:17N 54°19' E 009°42'0 0.0
2015-Sep-30 15:32N 54°19' E 009°42'0 0.0
2015-Sep-30 14:32N 54°19' E 009°42'0 0.0
2015-Sep-30 13:20N 54°19' E 009°42'0 0.0
2015-Sep-30 12:20N 54°19' E 009°42'0 0.0
2015-Sep-30 11:32N 54°19' E 009°42'0 0.0
2015-Sep-30 10:32N 54°19' E 009°42'0 0.0
2015-Sep-30 09:23N 54°19' E 009°42'0 0.0
2015-Sep-30 08:29N 54°19' E 009°42'0 0.0
2015-Sep-30 07:26N 54°19' E 009°42'0 0.0
2015-Sep-30 06:32N 54°19' E 009°42'0 0.0
2015-Sep-30 04:26N 54°19' E 009°42'0 0.0
2015-Sep-30 01:32N 54°19' E 009°42'0 0.0
2015-Sep-30 00:29N 54°19' E 009°42'0 0.0
2015-Sep-29 23:32N 54°19' E 009°42'0 0.0
2015-Sep-29 22:32N 54°19' E 009°42'0 0.0
2015-Sep-29 21:32N 54°19' E 009°42'0 0.0
2015-Sep-29 20:32N 54°19' E 009°42'0 0.0
2015-Sep-29 19:32N 54°19' E 009°42'0 0.0
2015-Sep-29 18:20N 54°19' E 009°42'0 0.0
2015-Sep-29 17:32N 54°19' E 009°42'0 0.0
2015-Sep-29 16:34N 54°19' E 009°42'0 0.0
2015-Sep-29 15:34N 54°19' E 009°42'0 0.0
2015-Sep-29 14:31N 54°19' E 009°42'0 0.0
2015-Sep-29 13:31N 54°19' E 009°42'0 0.0
2015-Sep-29 12:34N 54°19' E 009°42'0 0.0
2015-Sep-29 11:30N 54°19' E 009°42'0 0.0
2015-Sep-29 10:34N 54°19' E 009°42'0 0.0
2015-Sep-29 08:31N 54°19' E 009°42'0 0.0
2015-Sep-29 07:31N 54°19' E 009°42'0 0.0
2015-Sep-29 05:33N 54°19' E 009°42'0 0.0
2015-Sep-29 03:34N 54°19' E 009°42'0 0.0
2015-Sep-29 02:33N 54°19' E 009°42'0 0.0
2015-Sep-29 00:18N 54°19' E 009°42'0 0.0
2015-Sep-28 23:27N 54°19' E 009°42'0 0.0
2015-Sep-28 22:34N 54°19' E 009°42'0 0.0
2015-Sep-28 21:33N 54°19' E 009°42'0 0.0
2015-Sep-28 20:34N 54°19' E 009°42'0 0.0
2015-Sep-28 19:34N 54°19' E 009°42'0 0.0
2015-Sep-28 18:34N 54°19' E 009°42'0 0.0
2015-Sep-28 17:34N 54°19' E 009°42'0 0.0
2015-Sep-28 16:33N 54°19' E 009°42'0 0.0
2015-Sep-28 15:34N 54°19' E 009°42'0 0.0
2015-Sep-28 14:33N 54°19' E 009°42'0 0.0
2015-Sep-28 13:30N 54°19' E 009°42'0 0.0
2015-Sep-28 12:33N 54°19' E 009°42'0 0.0
2015-Sep-28 11:34N 54°19' E 009°42'0 0.0
2015-Sep-28 10:31N 54°19' E 009°42'0 0.0
2015-Sep-28 09:34N 54°19' E 009°42'0 0.0
2015-Sep-28 08:33N 54°19' E 009°42'2 1.7
2015-Sep-28 07:33N 54°17' E 009°40'18 5.2
2015-Sep-28 04:04N 54°04' E 009°19'1 2.8
2015-Sep-28 03:33N 54°03' E 009°18'6 6.0
2015-Sep-28 02:34N 53°57' E 009°14'5 4.9
2015-Sep-28 01:33N 53°54' E 009°09'1 1.1
2015-Sep-28 00:33N 53°53' E 009°10'0 0.0
2015-Sep-27 23:33N 53°53' E 009°10'0 0.0
2015-Sep-27 22:33N 53°53' E 009°10'0 0.0
2015-Sep-27 21:34N 53°53' E 009°10'0 0.1
2015-Sep-27 20:33N 53°53' E 009°10'1312.7
2015-Sep-27 19:34N 53°50' E 008°49'1413.8
2015-Sep-27 18:33N 53°58' E 008°30'1413.8
2015-Sep-27 17:31N 53°60' E 008°06'1415.1
2015-Sep-27 16:33N 54°06' E 007°43'1414.4
2015-Sep-27 15:33N 54°14' E 007°23'3 2.8
2015-Sep-27 14:33N 54°16' E 007°21'9 8.7
2015-Sep-27 13:34N 54°24' E 007°16'2 2.1
2015-Sep-27 12:33N 54°24' E 007°20'1515.2
2015-Sep-27 11:33N 54°10' E 007°31'2612.9
2015-Sep-27 09:33N 53°51' E 008°00'1313.2
2015-Sep-27 08:33N 53°43' E 008°18'1111.4
2015-Sep-27 07:33N 53°35' E 008°32'4 4.0
2015-Sep-27 06:33N 53°31' E 008°34'0 0.0
2015-Sep-27 05:33N 53°31' E 008°34'0 0.0
2015-Sep-27 04:33N 53°31' E 008°34'0 0.0
2015-Sep-27 03:33N 53°31' E 008°34'0 0.0
2015-Sep-27 02:33N 53°31' E 008°34'0 0.0
2015-Sep-27 01:33N 53°31' E 008°34'0 0.1
2015-Sep-27 00:33N 53°31' E 008°34'0 0.0
2015-Sep-26 23:30N 53°31' E 008°34'0 0.0
2015-Sep-26 22:33N 53°31' E 008°34'0 0.0
2015-Sep-26 21:33N 53°31' E 008°34'0 0.0
2015-Sep-26 20:33N 53°31' E 008°34'0 0.0
2015-Sep-26 19:33N 53°31' E 008°34'0 0.1
2015-Sep-26 18:33N 53°31' E 008°34'0 0.0
2015-Sep-26 17:33N 53°31' E 008°34'6 5.8
2015-Sep-26 16:33N 53°37' E 008°30'1312.7
2015-Sep-26 15:33N 53°44' E 008°13'3210.6
2015-Sep-26 12:33N 53°53' E 007°21'1110.8
2015-Sep-26 11:33N 53°51' E 007°03'9 9.4
2015-Sep-26 10:33N 53°49' E 006°48'32 9.5
2015-Sep-26 07:11N 53°39' E 005°56'710.4
2015-Sep-26 06:34N 53°37' E 005°46'1211.5
2015-Sep-26 05:34N 53°34' E 005°27'1514.6
2015-Sep-26 04:33N 53°29' E 005°04'4214.0
2015-Sep-26 01:33N 52°57' E 004°18'1414.4
2015-Sep-26 00:33N 52°45' E 004°06'1514.8
2015-Sep-25 23:33N 52°34' E 003°49'8313.2
2015-Sep-25 17:15N 51°33' E 002°18'912.2
2015-Sep-25 16:33N 51°25' E 002°12'1212.0
2015-Sep-25 15:33N 51°14' E 002°03'1312.6
2015-Sep-25 14:33N 51°07' E 001°46'1313.1
2015-Sep-25 13:33N 50°58' E 001°32'  
2015-Sep-22 15:32N 39°07' W 009°52'1212.1
2015-Sep-22 14:33N 38°55' W 009°52'1211.6
2015-Sep-22 13:33N 38°43' W 009°51'1211.8
2015-Sep-22 12:33N 38°32' W 009°48'1212.3
2015-Sep-22 11:33N 38°20' W 009°45'2712.2
2015-Sep-22 09:19N 37°53' W 009°37'1012.6
2015-Sep-22 08:32N 37°44' W 009°34'1312.7
2015-Sep-22 07:32N 37°31' W 009°30'1212.3
2015-Sep-22 06:33N 37°19' W 009°27'1212.1
2015-Sep-22 05:33N 37°08' W 009°23'1212.2
2015-Sep-22 04:33N 36°56' W 009°20'1211.5
2015-Sep-22 03:33N 36°46' W 009°12'1211.7
2015-Sep-22 02:32N 36°41' W 008°59'  
Track history (hours):
 
Tides and Currents Weather Stations Pressure Air Temp Water Temp Dewpoint Dewpoint Depression Visibility Wind Speed Wind Dir Waves Ship Positions

Titan

Last reported at 2015-Oct-01 10:33 UTC. Time now 2016-Feb-10 20:06 UTC.
Position N 54°19' E 009°42'.
Warning: this ship's position is months out of date.

Length 80 m; draft 3.5 m.

Type: Pleasure craft. MMSI: 310598000.

Date/timePositionNaut miles runAvg speedWind from/ knotsBaromVisibWave heightAir tempDewpointWater temp
2015-Oct-01 10:33N 54°19' E 009°42'0 0.0
2015-Sep-30 23:26N 54°19' E 009°42'0 0.0
2015-Sep-30 22:32N 54°19' E 009°42'0 0.0
2015-Sep-30 21:32N 54°19' E 009°42'0 0.0
2015-Sep-30 20:32N 54°19' E 009°42'0 0.0
2015-Sep-30 19:29N 54°19' E 009°42'0 0.0
2015-Sep-30 18:32N 54°19' E 009°42'0 0.0
2015-Sep-30 17:32N 54°19' E 009°42'0 0.0
2015-Sep-30 16:17N 54°19' E 009°42'0 0.0
2015-Sep-30 15:32N 54°19' E 009°42'0 0.0
2015-Sep-30 14:32N 54°19' E 009°42'0 0.0
2015-Sep-30 13:20N 54°19' E 009°42'0 0.0
2015-Sep-30 12:20N 54°19' E 009°42'0 0.0
2015-Sep-30 11:32N 54°19' E 009°42'0 0.0
2015-Sep-30 10:32N 54°19' E 009°42'0 0.0
2015-Sep-30 09:23N 54°19' E 009°42'0 0.0
2015-Sep-30 08:29N 54°19' E 009°42'0 0.0
2015-Sep-30 07:26N 54°19' E 009°42'0 0.0
2015-Sep-30 06:32N 54°19' E 009°42'0 0.0
2015-Sep-30 04:26N 54°19' E 009°42'0 0.0
2015-Sep-30 01:32N 54°19' E 009°42'0 0.0
2015-Sep-30 00:29N 54°19' E 009°42'0 0.0
2015-Sep-29 23:32N 54°19' E 009°42'0 0.0
2015-Sep-29 22:32N 54°19' E 009°42'0 0.0
2015-Sep-29 21:32N 54°19' E 009°42'0 0.0
2015-Sep-29 20:32N 54°19' E 009°42'0 0.0
2015-Sep-29 19:32N 54°19' E 009°42'0 0.0
2015-Sep-29 18:20N 54°19' E 009°42'0 0.0
2015-Sep-29 17:32N 54°19' E 009°42'0 0.0
2015-Sep-29 16:34N 54°19' E 009°42'0 0.0
2015-Sep-29 15:34N 54°19' E 009°42'0 0.0
2015-Sep-29 14:31N 54°19' E 009°42'0 0.0
2015-Sep-29 13:31N 54°19' E 009°42'0 0.0
2015-Sep-29 12:34N 54°19' E 009°42'0 0.0
2015-Sep-29 11:30N 54°19' E 009°42'0 0.0
2015-Sep-29 10:34N 54°19' E 009°42'0 0.0
2015-Sep-29 08:31N 54°19' E 009°42'0 0.0
2015-Sep-29 07:31N 54°19' E 009°42'0 0.0
2015-Sep-29 05:33N 54°19' E 009°42'0 0.0
2015-Sep-29 03:34N 54°19' E 009°42'0 0.0
2015-Sep-29 02:33N 54°19' E 009°42'0 0.0
2015-Sep-29 00:18N 54°19' E 009°42'0 0.0
2015-Sep-28 23:27N 54°19' E 009°42'0 0.0
2015-Sep-28 22:34N 54°19' E 009°42'0 0.0
2015-Sep-28 21:33N 54°19' E 009°42'0 0.0
2015-Sep-28 20:34N 54°19' E 009°42'0 0.0
2015-Sep-28 19:34N 54°19' E 009°42'0 0.0
2015-Sep-28 18:34N 54°19' E 009°42'0 0.0
2015-Sep-28 17:34N 54°19' E 009°42'0 0.0
2015-Sep-28 16:33N 54°19' E 009°42'0 0.0
2015-Sep-28 15:34N 54°19' E 009°42'0 0.0
2015-Sep-28 14:33N 54°19' E 009°42'0 0.0
2015-Sep-28 13:30N 54°19' E 009°42'0 0.0
2015-Sep-28 12:33N 54°19' E 009°42'0 0.0
2015-Sep-28 11:34N 54°19' E 009°42'0 0.0
2015-Sep-28 10:31N 54°19' E 009°42'0 0.0
2015-Sep-28 09:34N 54°19' E 009°42'0 0.0
2015-Sep-28 08:33N 54°19' E 009°42'2 1.7
2015-Sep-28 07:33N 54°17' E 009°40'18 5.2
2015-Sep-28 04:04N 54°04' E 009°19'1 2.8
2015-Sep-28 03:33N 54°03' E 009°18'6 6.0
2015-Sep-28 02:34N 53°57' E 009°14'5 4.9
2015-Sep-28 01:33N 53°54' E 009°09'1 1.1
2015-Sep-28 00:33N 53°53' E 009°10'0 0.0
2015-Sep-27 23:33N 53°53' E 009°10'0 0.0
2015-Sep-27 22:33N 53°53' E 009°10'0 0.0
2015-Sep-27 21:34N 53°53' E 009°10'0 0.1
2015-Sep-27 20:33N 53°53' E 009°10'1312.7
2015-Sep-27 19:34N 53°50' E 008°49'1413.8
2015-Sep-27 18:33N 53°58' E 008°30'1413.8
2015-Sep-27 17:31N 53°60' E 008°06'1415.1
2015-Sep-27 16:33N 54°06' E 007°43'1414.4
2015-Sep-27 15:33N 54°14' E 007°23'3 2.8
2015-Sep-27 14:33N 54°16' E 007°21'9 8.7
2015-Sep-27 13:34N 54°24' E 007°16'2 2.1
2015-Sep-27 12:33N 54°24' E 007°20'1515.2
2015-Sep-27 11:33N 54°10' E 007°31'2612.9
2015-Sep-27 09:33N 53°51' E 008°00'1313.2
2015-Sep-27 08:33N 53°43' E 008°18'1111.4
2015-Sep-27 07:33N 53°35' E 008°32'4 4.0
2015-Sep-27 06:33N 53°31' E 008°34'0 0.0
2015-Sep-27 05:33N 53°31' E 008°34'0 0.0
2015-Sep-27 04:33N 53°31' E 008°34'0 0.0
2015-Sep-27 03:33N 53°31' E 008°34'0 0.0
2015-Sep-27 02:33N 53°31' E 008°34'0 0.0
2015-Sep-27 01:33N 53°31' E 008°34'0 0.1
2015-Sep-27 00:33N 53°31' E 008°34'0 0.0
2015-Sep-26 23:30N 53°31' E 008°34'0 0.0
2015-Sep-26 22:33N 53°31' E 008°34'0 0.0
2015-Sep-26 21:33N 53°31' E 008°34'0 0.0
2015-Sep-26 20:33N 53°31' E 008°34'0 0.0
2015-Sep-26 19:33N 53°31' E 008°34'0 0.1
2015-Sep-26 18:33N 53°31' E 008°34'0 0.0
2015-Sep-26 17:33N 53°31' E 008°34'6 5.8
2015-Sep-26 16:33N 53°37' E 008°30'1312.7
2015-Sep-26 15:33N 53°44' E 008°13'3210.6
2015-Sep-26 12:33N 53°53' E 007°21'1110.8
2015-Sep-26 11:33N 53°51' E 007°03'9 9.4
2015-Sep-26 10:33N 53°49' E 006°48'32 9.5
2015-Sep-26 07:11N 53°39' E 005°56'710.4
2015-Sep-26 06:34N 53°37' E 005°46'1211.5
2015-Sep-26 05:34N 53°34' E 005°27'1514.6
2015-Sep-26 04:33N 53°29' E 005°04'4214.0
2015-Sep-26 01:33N 52°57' E 004°18'1414.4
2015-Sep-26 00:33N 52°45' E 004°06'1514.8
2015-Sep-25 23:33N 52°34' E 003°49'8313.2
2015-Sep-25 17:15N 51°33' E 002°18'912.2
2015-Sep-25 16:33N 51°25' E 002°12'1212.0
2015-Sep-25 15:33N 51°14' E 002°03'1312.6
2015-Sep-25 14:33N 51°07' E 001°46'1313.1
2015-Sep-25 13:33N 50°58' E 001°32'  
2015-Sep-22 15:32N 39°07' W 009°52'1212.1
2015-Sep-22 14:33N 38°55' W 009°52'1211.6
2015-Sep-22 13:33N 38°43' W 009°51'1211.8
2015-Sep-22 12:33N 38°32' W 009°48'1212.3
2015-Sep-22 11:33N 38°20' W 009°45'2712.2
2015-Sep-22 09:19N 37°53' W 009°37'1012.6
2015-Sep-22 08:32N 37°44' W 009°34'1312.7
2015-Sep-22 07:32N 37°31' W 009°30'1212.3
2015-Sep-22 06:33N 37°19' W 009°27'1212.1
2015-Sep-22 05:33N 37°08' W 009°23'1212.2
2015-Sep-22 04:33N 36°56' W 009°20'1211.5
2015-Sep-22 03:33N 36°46' W 009°12'1211.7
2015-Sep-22 02:32N 36°41' W 008°59'  

Dump ship's entire track history